createdAt,value
2018-07-21T00:00:10.352Z,0.00
2018-07-21T00:01:10.256Z,0.00
2018-07-21T00:02:10.212Z,0.00
2018-07-21T00:03:10.117Z,0.00
2018-07-21T00:04:10.049Z,0.00
2018-07-21T00:05:09.972Z,0.00
2018-07-21T00:06:09.918Z,0.00
2018-07-21T00:07:09.830Z,0.00
2018-07-21T00:08:09.843Z,0.00
2018-07-21T00:09:09.689Z,0.00
2018-07-21T00:10:09.649Z,0.00
2018-07-21T00:11:09.546Z,0.00
2018-07-21T00:12:09.486Z,0.00
2018-07-21T00:13:09.411Z,0.00
2018-07-21T00:14:09.348Z,0.00
2018-07-21T00:15:09.263Z,0.00
2018-07-21T00:16:09.285Z,0.00
2018-07-21T00:17:09.128Z,0.00
2018-07-21T00:18:09.066Z,0.00
2018-07-21T00:19:08.981Z,0.00
2018-07-21T00:20:08.915Z,0.00
2018-07-21T00:21:08.837Z,0.00
2018-07-21T00:22:08.809Z,0.00
2018-07-21T00:23:08.694Z,0.00
2018-07-21T00:24:08.625Z,0.00
2018-07-21T00:25:08.554Z,0.00
2018-07-21T00:26:08.492Z,0.00
2018-07-21T00:27:08.411Z,0.00
2018-07-21T00:28:08.440Z,0.00
2018-07-21T00:29:08.266Z,0.00
2018-07-21T00:30:08.255Z,0.00
2018-07-21T00:31:08.121Z,0.00
2018-07-21T00:32:08.061Z,0.00
2018-07-21T00:33:07.985Z,0.00
2018-07-21T00:34:07.967Z,0.00
2018-07-21T00:35:07.846Z,0.00
2018-07-21T00:36:07.779Z,0.00
2018-07-21T00:37:07.701Z,0.00
2018-07-21T00:38:07.687Z,0.00
2018-07-21T00:39:07.560Z,0.00
2018-07-21T00:40:07.607Z,0.00
2018-07-21T00:41:07.418Z,0.00
2018-07-21T00:42:07.356Z,0.00
2018-07-21T00:43:07.279Z,0.00
2018-07-21T00:44:07.213Z,0.00
2018-07-21T00:45:07.136Z,0.00
2018-07-21T00:46:07.071Z,0.00
2018-07-21T00:47:06.992Z,0.00
2018-07-21T00:48:06.933Z,0.00
2018-07-21T00:49:06.851Z,0.00
2018-07-21T00:50:06.851Z,0.00
2018-07-21T00:51:06.711Z,0.00
2018-07-21T00:52:07.647Z,0.00
2018-07-21T00:53:06.564Z,0.00
2018-07-21T00:54:06.510Z,0.00
2018-07-21T00:55:06.436Z,0.00
2018-07-21T00:56:06.377Z,0.00
2018-07-21T00:57:06.287Z,0.00
2018-07-21T00:58:06.221Z,0.00
2018-07-21T00:59:06.141Z,0.00
2018-07-21T01:00:06.079Z,0.00
2018-07-21T01:01:05.998Z,0.00
2018-07-21T01:02:05.938Z,0.00
2018-07-21T01:03:05.872Z,0.00
2018-07-21T01:04:05.797Z,0.00
2018-07-21T01:05:05.720Z,0.00
2018-07-21T01:06:05.657Z,0.00
2018-07-21T01:07:05.576Z,0.00
2018-07-21T01:08:05.513Z,0.00
2018-07-21T01:09:05.441Z,0.00
2018-07-21T01:10:05.375Z,0.00
2018-07-21T01:11:05.302Z,0.00
2018-07-21T01:12:05.237Z,0.00
2018-07-21T01:13:05.155Z,0.00
2018-07-21T01:14:05.102Z,0.00
2018-07-21T01:15:05.013Z,0.00
2018-07-21T01:16:04.948Z,0.00
2018-07-21T01:17:04.874Z,0.00
2018-07-21T01:18:04.804Z,0.00
2018-07-21T01:19:04.732Z,0.00
2018-07-21T01:20:04.664Z,0.00
2018-07-21T01:21:04.591Z,0.00
2018-07-21T01:22:04.525Z,0.00
2018-07-21T01:23:04.451Z,0.00
2018-07-21T01:24:04.386Z,0.00
2018-07-21T01:25:04.303Z,0.00
2018-07-21T01:26:04.243Z,0.00
2018-07-21T01:27:04.165Z,0.00
2018-07-21T01:28:04.101Z,0.00
2018-07-21T01:29:04.027Z,0.00
2018-07-21T01:30:03.966Z,0.00
2018-07-21T01:31:03.888Z,0.00
2018-07-21T01:32:03.820Z,0.00
2018-07-21T01:33:03.741Z,0.00
2018-07-21T01:34:03.679Z,0.00
2018-07-21T01:35:03.603Z,0.00
2018-07-21T01:36:03.536Z,0.00
2018-07-21T01:37:03.459Z,0.00
2018-07-21T01:38:03.397Z,0.00
2018-07-21T01:39:03.318Z,0.00
2018-07-21T01:40:03.252Z,0.00
2018-07-21T01:41:03.174Z,0.00
2018-07-21T01:42:03.113Z,0.00
2018-07-21T01:43:03.036Z,0.00
2018-07-21T01:44:02.971Z,0.00
2018-07-21T01:45:02.893Z,0.00
2018-07-21T01:46:02.832Z,0.00
2018-07-21T01:47:02.754Z,0.00
2018-07-21T01:48:02.692Z,0.00
2018-07-21T01:49:02.612Z,0.00
2018-07-21T01:50:02.549Z,0.00
2018-07-21T01:51:02.470Z,0.00
2018-07-21T01:52:02.444Z,0.00
2018-07-21T01:53:02.329Z,0.00
2018-07-21T01:54:02.264Z,0.00
2018-07-21T01:55:02.189Z,0.00
2018-07-21T01:56:02.123Z,0.00
2018-07-21T01:57:02.046Z,0.00
2018-07-21T01:58:01.987Z,0.00
2018-07-21T01:59:01.905Z,0.00
2018-07-21T02:00:01.838Z,0.00
2018-07-21T02:01:01.762Z,0.00
2018-07-21T02:02:01.704Z,0.00
2018-07-21T02:03:01.627Z,0.00
2018-07-21T02:04:01.556Z,0.00
2018-07-21T02:05:01.481Z,0.00
2018-07-21T02:06:01.421Z,0.00
2018-07-21T02:07:01.344Z,0.00
2018-07-21T02:08:01.274Z,0.00
2018-07-21T02:09:01.198Z,0.00
2018-07-21T02:10:01.138Z,0.00
2018-07-21T02:11:01.058Z,0.00
2018-07-21T02:12:00.998Z,0.00
2018-07-21T02:13:00.916Z,0.00
2018-07-21T02:14:00.857Z,0.00
2018-07-21T02:15:00.778Z,0.00
2018-07-21T02:16:00.715Z,0.00
2018-07-21T02:17:00.635Z,0.00
2018-07-21T02:18:00.569Z,0.00
2018-07-21T02:19:00.492Z,0.00
2018-07-21T02:20:00.428Z,0.00
2018-07-21T02:21:00.353Z,0.00
2018-07-21T02:22:00.289Z,0.00
2018-07-21T02:23:00.211Z,0.00
2018-07-21T02:24:00.148Z,0.00
2018-07-21T02:25:00.070Z,0.00
2018-07-21T02:26:00.010Z,0.00
2018-07-21T02:26:59.930Z,0.00
2018-07-21T02:27:59.864Z,0.00
2018-07-21T02:28:59.789Z,0.00
2018-07-21T02:29:59.724Z,0.00
2018-07-21T02:30:59.654Z,0.00
2018-07-21T02:31:59.573Z,0.00
2018-07-21T02:32:59.513Z,0.00
2018-07-21T02:33:59.432Z,0.00
2018-07-21T02:34:59.373Z,0.00
2018-07-21T02:35:59.292Z,0.00
2018-07-21T02:36:59.226Z,0.00
2018-07-21T02:37:59.150Z,0.00
2018-07-21T02:38:59.094Z,0.00
2018-07-21T02:39:59.011Z,0.00
2018-07-21T02:40:58.949Z,0.00
2018-07-21T02:41:58.870Z,0.00
2018-07-21T02:42:58.808Z,0.00
2018-07-21T02:43:58.728Z,0.00
2018-07-21T02:44:58.661Z,0.00
2018-07-21T02:45:58.586Z,0.00
2018-07-21T02:46:58.530Z,0.00
2018-07-21T02:47:58.454Z,0.00
2018-07-21T02:48:58.383Z,0.00
2018-07-21T02:49:58.298Z,0.00
2018-07-21T02:50:58.240Z,0.00
2018-07-21T02:51:58.162Z,0.00
2018-07-21T02:52:58.097Z,0.00
2018-07-21T02:53:58.020Z,0.00
2018-07-21T02:54:57.960Z,0.00
2018-07-21T02:55:57.879Z,0.00
2018-07-21T02:56:57.815Z,0.00
2018-07-21T02:57:57.736Z,0.00
2018-07-21T02:58:57.675Z,0.00
2018-07-21T02:59:57.599Z,0.00
2018-07-21T03:00:57.533Z,0.00
2018-07-21T03:01:57.456Z,0.00
2018-07-21T03:02:57.393Z,0.00
2018-07-21T03:03:57.314Z,0.00
2018-07-21T03:04:57.250Z,0.00
2018-07-21T03:05:57.177Z,0.00
2018-07-21T03:06:57.114Z,0.00
2018-07-21T03:07:57.034Z,0.00
2018-07-21T03:08:56.968Z,0.00
2018-07-21T03:09:56.931Z,0.00
2018-07-21T03:10:56.835Z,0.00
2018-07-21T03:11:56.746Z,0.00
2018-07-21T03:12:56.685Z,0.00
2018-07-21T03:13:56.608Z,0.00
2018-07-21T03:14:56.548Z,0.00
2018-07-21T03:15:56.467Z,0.00
2018-07-21T03:16:56.407Z,0.00
2018-07-21T03:17:56.350Z,0.00
2018-07-21T03:18:56.257Z,0.00
2018-07-21T03:19:56.184Z,0.00
2018-07-21T03:20:56.121Z,0.00
2018-07-21T03:21:56.041Z,0.00
2018-07-21T03:22:55.974Z,0.00
2018-07-21T03:23:55.906Z,0.00
2018-07-21T03:24:55.836Z,0.00
2018-07-21T03:25:55.768Z,0.00
2018-07-21T03:26:55.698Z,0.00
2018-07-21T03:27:55.618Z,0.00
2018-07-21T03:28:55.556Z,0.00
2018-07-21T03:29:55.475Z,0.00
2018-07-21T03:30:55.469Z,0.00
2018-07-21T03:31:55.334Z,0.00
2018-07-21T03:32:55.270Z,0.00
2018-07-21T03:33:55.191Z,0.00
2018-07-21T03:34:55.125Z,0.00
2018-07-21T03:35:55.048Z,0.00
2018-07-21T03:36:54.987Z,0.00
2018-07-21T03:37:54.906Z,0.00
2018-07-21T03:38:54.847Z,0.00
2018-07-21T03:39:54.762Z,0.00
2018-07-21T03:40:54.701Z,0.00
2018-07-21T03:41:54.625Z,0.00
2018-07-21T03:42:54.563Z,0.00
2018-07-21T03:43:54.484Z,0.00
2018-07-21T03:44:54.422Z,0.00
2018-07-21T03:45:54.342Z,0.00
2018-07-21T03:46:54.282Z,0.00
2018-07-21T03:47:54.198Z,0.00
2018-07-21T03:48:54.139Z,0.00
2018-07-21T03:49:54.055Z,0.00
2018-07-21T03:50:53.994Z,0.00
2018-07-21T03:51:53.913Z,0.00
2018-07-21T03:52:53.851Z,0.00
2018-07-21T03:53:53.781Z,0.00
2018-07-21T03:54:53.705Z,0.00
2018-07-21T03:55:53.626Z,0.00
2018-07-21T03:56:53.564Z,0.00
2018-07-21T03:57:53.489Z,0.00
2018-07-21T03:58:53.422Z,0.00
2018-07-21T03:59:53.343Z,0.00
2018-07-21T04:00:53.280Z,0.00
2018-07-21T04:01:53.204Z,0.00
2018-07-21T04:02:53.136Z,0.00
2018-07-21T04:03:53.061Z,0.00
2018-07-21T04:04:52.995Z,0.00
2018-07-21T04:05:52.918Z,0.00
2018-07-21T04:06:52.854Z,0.00
2018-07-21T04:07:52.773Z,0.00
2018-07-21T04:08:52.734Z,0.00
2018-07-21T04:09:52.634Z,0.00
2018-07-21T04:10:52.568Z,0.00
2018-07-21T04:11:52.491Z,0.00
2018-07-21T04:12:52.430Z,0.00
2018-07-21T04:13:52.346Z,0.00
2018-07-21T04:14:52.282Z,0.00
2018-07-21T04:15:52.204Z,0.00
2018-07-21T04:16:52.156Z,0.00
2018-07-21T04:17:52.063Z,0.00
2018-07-21T04:18:51.999Z,0.00
2018-07-21T04:19:51.918Z,0.00
2018-07-21T04:20:51.856Z,0.00
2018-07-21T04:21:51.778Z,0.00
2018-07-21T04:22:51.717Z,0.00
2018-07-21T04:23:51.629Z,0.00
2018-07-21T04:24:51.571Z,0.00
2018-07-21T04:25:51.492Z,0.00
2018-07-21T04:26:51.430Z,0.00
2018-07-21T04:27:51.348Z,0.00
2018-07-21T04:28:51.290Z,0.00
2018-07-21T04:29:51.208Z,0.00
2018-07-21T04:30:51.145Z,0.00
2018-07-21T04:31:51.061Z,0.00
2018-07-21T04:32:51.003Z,0.00
2018-07-21T04:33:50.921Z,0.00
2018-07-21T04:34:50.860Z,0.00
2018-07-21T04:35:50.777Z,0.00
2018-07-21T04:36:50.715Z,0.00
2018-07-21T04:37:50.637Z,0.00
2018-07-21T04:38:50.610Z,0.00
2018-07-21T04:39:50.497Z,0.00
2018-07-21T04:40:50.430Z,0.00
2018-07-21T04:41:50.358Z,0.00
2018-07-21T04:42:50.291Z,0.00
2018-07-21T04:43:50.208Z,0.00
2018-07-21T04:44:50.145Z,0.00
2018-07-21T04:45:50.071Z,0.00
2018-07-21T04:46:50.007Z,0.00
2018-07-21T04:47:49.922Z,0.00
2018-07-21T04:48:49.863Z,0.00
2018-07-21T04:49:49.781Z,0.00
2018-07-21T04:50:49.721Z,0.00
2018-07-21T04:51:49.638Z,0.00
2018-07-21T04:52:49.575Z,0.00
2018-07-21T04:53:49.513Z,0.00
2018-07-21T04:54:49.430Z,0.00
2018-07-21T04:55:49.360Z,0.00
2018-07-21T04:56:49.289Z,0.00
2018-07-21T04:57:49.211Z,0.00
2018-07-21T04:58:49.146Z,0.00
2018-07-21T04:59:49.066Z,0.00
2018-07-21T05:00:49.058Z,0.00
2018-07-21T05:01:48.927Z,0.00
2018-07-21T05:02:48.867Z,0.00
2018-07-21T05:03:48.782Z,0.00
2018-07-21T05:04:48.721Z,0.00
2018-07-21T05:05:48.639Z,5.63
2018-07-21T05:06:48.576Z,5.63
2018-07-21T05:07:48.497Z,5.63
2018-07-21T05:08:48.435Z,5.63
2018-07-21T05:09:48.354Z,5.63
2018-07-21T05:10:48.295Z,5.63
2018-07-21T05:11:48.210Z,5.63
2018-07-21T05:12:48.150Z,5.63
2018-07-21T05:13:48.069Z,5.63
2018-07-21T05:14:48.007Z,5.63
2018-07-21T05:15:47.929Z,5.63
2018-07-21T05:16:47.862Z,5.63
2018-07-21T05:17:47.784Z,5.63
2018-07-21T05:18:47.722Z,5.63
2018-07-21T05:19:47.643Z,5.63
2018-07-21T05:20:47.577Z,5.63
2018-07-21T05:21:47.499Z,5.63
2018-07-21T05:22:47.435Z,5.63
2018-07-21T05:23:47.356Z,5.63
2018-07-21T05:24:47.295Z,5.63
2018-07-21T05:25:47.214Z,5.63
2018-07-21T05:26:47.151Z,5.63
2018-07-21T05:27:47.074Z,11.25
2018-07-21T05:28:47.005Z,11.25
2018-07-21T05:29:46.929Z,11.25
2018-07-21T05:30:46.866Z,11.25
2018-07-21T05:31:46.787Z,11.25
2018-07-21T05:32:46.722Z,11.25
2018-07-21T05:33:46.645Z,11.25
2018-07-21T05:34:46.582Z,11.25
2018-07-21T05:35:46.503Z,11.25
2018-07-21T05:36:46.439Z,11.25
2018-07-21T05:37:46.361Z,11.25
2018-07-21T05:38:46.298Z,16.88
2018-07-21T05:39:46.218Z,16.88
2018-07-21T05:40:46.157Z,16.88
2018-07-21T05:41:46.073Z,16.88
2018-07-21T05:42:46.013Z,11.25
2018-07-21T05:43:45.932Z,11.25
2018-07-21T05:44:45.870Z,11.25
2018-07-21T05:45:45.789Z,11.25
2018-07-21T05:46:45.732Z,11.25
2018-07-21T05:47:45.646Z,11.25
2018-07-21T05:48:45.588Z,11.25
2018-07-21T05:49:45.504Z,11.25
2018-07-21T05:50:45.443Z,5.63
2018-07-21T05:51:45.362Z,5.63
2018-07-21T05:52:45.301Z,5.63
2018-07-21T05:53:45.229Z,5.63
2018-07-21T05:54:45.155Z,5.63
2018-07-21T05:55:45.078Z,5.63
2018-07-21T05:56:45.016Z,5.63
2018-07-21T05:57:44.934Z,5.63
2018-07-21T05:58:44.869Z,5.63
2018-07-21T05:59:44.794Z,5.63
2018-07-21T06:00:44.730Z,5.63
2018-07-21T06:01:44.651Z,5.63
2018-07-21T06:02:44.610Z,5.63
2018-07-21T06:03:44.507Z,5.63
2018-07-21T06:04:44.444Z,5.63
2018-07-21T06:05:44.363Z,5.63
2018-07-21T06:06:44.300Z,5.63
2018-07-21T06:07:44.225Z,5.63
2018-07-21T06:08:44.163Z,5.63
2018-07-21T06:09:44.084Z,5.63
2018-07-21T06:10:44.019Z,5.63
2018-07-21T06:11:43.937Z,5.63
2018-07-21T06:12:43.873Z,5.63
2018-07-21T06:13:43.794Z,5.63
2018-07-21T06:14:43.732Z,5.63
2018-07-21T06:15:43.656Z,5.63
2018-07-21T06:16:43.592Z,5.63
2018-07-21T06:17:43.512Z,5.63
2018-07-21T06:18:43.483Z,5.63
2018-07-21T06:19:43.370Z,5.63
2018-07-21T06:20:43.305Z,5.63
2018-07-21T06:21:43.243Z,5.63
2018-07-21T06:22:43.159Z,5.63
2018-07-21T06:23:43.099Z,5.63
2018-07-21T06:24:43.018Z,5.63
2018-07-21T06:25:42.942Z,5.63
2018-07-21T06:26:42.876Z,5.63
2018-07-21T06:27:42.799Z,5.63
2018-07-21T06:28:42.737Z,5.63
2018-07-21T06:29:42.666Z,5.63
2018-07-21T06:30:42.595Z,5.63
2018-07-21T06:31:42.515Z,5.63
2018-07-21T06:32:42.450Z,5.63
2018-07-21T06:33:42.371Z,5.63
2018-07-21T06:34:42.311Z,5.63
2018-07-21T06:35:42.240Z,5.63
2018-07-21T06:36:42.165Z,5.63
2018-07-21T06:37:42.089Z,5.63
2018-07-21T06:38:42.025Z,5.63
2018-07-21T06:39:41.946Z,5.63
2018-07-21T06:40:41.882Z,5.63
2018-07-21T06:41:41.800Z,5.63
2018-07-21T06:42:41.741Z,5.63
2018-07-21T06:43:41.661Z,5.63
2018-07-21T06:44:41.599Z,5.63
2018-07-21T06:45:41.518Z,5.63
2018-07-21T06:46:41.458Z,5.63
2018-07-21T06:47:41.374Z,5.63
2018-07-21T06:48:41.316Z,5.63
2018-07-21T06:49:41.291Z,5.63
2018-07-21T06:50:41.722Z,5.63
2018-07-21T06:51:41.092Z,5.63
2018-07-21T06:52:41.028Z,5.63
2018-07-21T06:53:40.956Z,5.63
2018-07-21T06:54:40.888Z,5.63
2018-07-21T06:55:40.807Z,11.25
2018-07-21T06:56:40.746Z,11.25
2018-07-21T06:57:40.664Z,11.25
2018-07-21T06:58:40.602Z,11.25
2018-07-21T06:59:40.522Z,11.25
2018-07-21T07:00:40.460Z,11.25
2018-07-21T07:01:40.381Z,11.25
2018-07-21T07:02:40.315Z,11.25
2018-07-21T07:03:40.240Z,11.25
2018-07-21T07:04:40.184Z,11.25
2018-07-21T07:05:40.098Z,11.25
2018-07-21T07:06:40.031Z,11.25
2018-07-21T07:07:39.950Z,11.25
2018-07-21T07:08:39.886Z,11.25
2018-07-21T07:09:39.809Z,11.25
2018-07-21T07:10:39.745Z,11.25
2018-07-21T07:11:39.666Z,11.25
2018-07-21T07:12:39.605Z,11.25
2018-07-21T07:13:39.524Z,11.25
2018-07-21T07:14:39.464Z,11.25
2018-07-21T07:15:39.379Z,11.25
2018-07-21T07:16:39.316Z,11.25
2018-07-21T07:17:39.240Z,11.25
2018-07-21T07:18:39.174Z,11.25
2018-07-21T07:19:39.095Z,11.25
2018-07-21T07:20:39.030Z,11.25
2018-07-21T07:21:38.952Z,11.25
2018-07-21T07:22:38.893Z,11.25
2018-07-21T07:23:38.816Z,16.88
2018-07-21T07:24:38.738Z,16.88
2018-07-21T07:25:38.700Z,16.88
2018-07-21T07:26:38.598Z,16.88
2018-07-21T07:27:38.530Z,16.88
2018-07-21T07:28:38.455Z,16.88
2018-07-21T07:29:38.400Z,16.88
2018-07-21T07:30:38.425Z,16.88
2018-07-21T07:31:38.240Z,16.88
2018-07-21T07:32:38.233Z,16.88
2018-07-21T07:33:38.099Z,16.88
2018-07-21T07:34:38.043Z,16.88
2018-07-21T07:35:37.949Z,22.50
2018-07-21T07:36:37.953Z,22.50
2018-07-21T07:37:37.812Z,22.50
2018-07-21T07:38:37.764Z,22.50
2018-07-21T07:39:37.667Z,22.50
2018-07-21T07:40:37.679Z,22.50
2018-07-21T07:41:37.533Z,22.50
2018-07-21T07:42:37.482Z,22.50
2018-07-21T07:43:37.406Z,22.50
2018-07-21T07:44:37.320Z,22.50
2018-07-21T07:45:37.240Z,22.50
2018-07-21T07:46:37.207Z,22.50
2018-07-21T07:47:37.096Z,16.88
2018-07-21T07:48:37.114Z,16.88
2018-07-21T07:49:36.955Z,16.88
2018-07-21T07:50:36.923Z,16.88
2018-07-21T07:51:36.817Z,16.88
2018-07-21T07:52:36.836Z,16.88
2018-07-21T07:53:36.670Z,16.88
2018-07-21T07:54:36.644Z,11.25
2018-07-21T07:55:36.552Z,11.25
2018-07-21T07:56:36.553Z,11.25
2018-07-21T07:57:36.386Z,11.25
2018-07-21T07:58:36.321Z,11.25
2018-07-21T07:59:36.240Z,11.25
2018-07-21T08:00:36.180Z,11.25
2018-07-21T08:01:36.106Z,11.25
2018-07-21T08:02:36.041Z,11.25
2018-07-21T08:03:35.964Z,11.25
2018-07-21T08:04:35.893Z,11.25
2018-07-21T08:05:35.819Z,16.88
2018-07-21T08:06:35.754Z,16.88
2018-07-21T08:07:35.707Z,16.88
2018-07-21T08:08:35.601Z,16.88
2018-07-21T08:09:35.619Z,16.88
2018-07-21T08:10:35.459Z,16.88
2018-07-21T08:11:35.393Z,11.25
2018-07-21T08:12:35.435Z,11.25
2018-07-21T08:13:35.247Z,11.25
2018-07-21T08:14:35.241Z,11.25
2018-07-21T08:15:35.099Z,11.25
2018-07-21T08:16:35.050Z,11.25
2018-07-21T08:17:34.960Z,11.25
2018-07-21T08:18:34.959Z,11.25
2018-07-21T08:19:34.875Z,11.25
2018-07-21T08:20:34.770Z,11.25
2018-07-21T08:21:34.676Z,11.25
2018-07-21T08:22:34.682Z,11.25
2018-07-21T08:23:34.529Z,11.25
2018-07-21T08:24:34.495Z,11.25
2018-07-21T08:25:34.389Z,11.25
2018-07-21T08:26:34.402Z,11.25
2018-07-21T08:27:34.241Z,11.25
2018-07-21T08:28:34.211Z,11.25
2018-07-21T08:29:34.105Z,11.25
2018-07-21T08:30:34.123Z,5.63
2018-07-21T08:31:33.956Z,5.63
2018-07-21T08:32:33.932Z,5.63
2018-07-21T08:33:33.814Z,5.63
2018-07-21T08:34:33.847Z,5.63
2018-07-21T08:35:33.668Z,5.63
2018-07-21T08:36:33.648Z,11.25
2018-07-21T08:37:33.524Z,11.25
2018-07-21T08:38:33.558Z,11.25
2018-07-21T08:39:33.384Z,11.25
2018-07-21T08:40:33.379Z,11.25
2018-07-21T08:41:33.242Z,11.25
2018-07-21T08:42:33.278Z,11.25
2018-07-21T08:43:33.097Z,11.25
2018-07-21T08:44:33.086Z,11.25
2018-07-21T08:45:32.958Z,11.25
2018-07-21T08:46:32.998Z,11.25
2018-07-21T08:47:32.813Z,11.25
2018-07-21T08:48:32.806Z,11.25
2018-07-21T08:49:32.671Z,11.25
2018-07-21T08:50:32.719Z,11.25
2018-07-21T08:51:32.534Z,11.25
2018-07-21T08:52:32.463Z,11.25
2018-07-21T08:53:32.390Z,11.25
2018-07-21T08:54:32.331Z,11.25
2018-07-21T08:55:32.243Z,11.25
2018-07-21T08:56:32.246Z,11.25
2018-07-21T08:57:32.097Z,11.25
2018-07-21T08:58:32.027Z,11.25
2018-07-21T08:59:32.062Z,11.25
2018-07-21T09:00:31.881Z,11.25
2018-07-21T09:01:31.872Z,11.25
2018-07-21T09:02:31.740Z,11.25
2018-07-21T09:03:31.782Z,11.25
2018-07-21T09:04:31.598Z,11.25
2018-07-21T09:05:31.590Z,11.25
2018-07-21T09:06:31.454Z,11.25
2018-07-21T09:07:31.399Z,11.25
2018-07-21T09:08:31.315Z,11.25
2018-07-21T09:09:31.312Z,11.25
2018-07-21T09:10:31.166Z,11.25
2018-07-21T09:11:31.121Z,11.25
2018-07-21T09:12:31.035Z,11.25
2018-07-21T09:13:31.037Z,11.25
2018-07-21T09:14:30.888Z,5.63
2018-07-21T09:15:30.838Z,5.63
2018-07-21T09:16:30.737Z,5.63
2018-07-21T09:17:30.749Z,5.63
2018-07-21T09:18:30.693Z,5.63
2018-07-21T09:19:30.554Z,5.63
2018-07-21T09:20:30.450Z,5.63
2018-07-21T09:21:30.570Z,5.63
2018-07-21T09:22:30.306Z,5.63
2018-07-21T09:23:30.278Z,5.63
2018-07-21T09:24:30.160Z,5.63
2018-07-21T09:25:30.193Z,5.63
2018-07-21T09:26:30.025Z,5.63
2018-07-21T09:27:29.996Z,5.63
2018-07-21T09:28:29.880Z,5.63
2018-07-21T09:29:29.911Z,5.63
2018-07-21T09:30:29.734Z,5.63
2018-07-21T09:31:29.677Z,5.63
2018-07-21T09:32:29.591Z,5.63
2018-07-21T09:33:29.648Z,5.63
2018-07-21T09:34:29.449Z,5.63
2018-07-21T09:35:29.436Z,5.63
2018-07-21T09:36:29.302Z,11.25
2018-07-21T09:37:29.383Z,11.25
2018-07-21T09:38:29.159Z,11.25
2018-07-21T09:39:29.155Z,11.25
2018-07-21T09:40:29.016Z,11.25
2018-07-21T09:41:29.079Z,11.25
2018-07-21T09:42:28.873Z,11.25
2018-07-21T09:43:28.875Z,11.25
2018-07-21T09:44:28.736Z,11.25
2018-07-21T09:45:28.685Z,11.25
2018-07-21T09:46:28.587Z,11.25
2018-07-21T09:47:28.522Z,11.25
2018-07-21T09:48:28.441Z,11.25
2018-07-21T09:49:28.405Z,16.88
2018-07-21T09:50:28.322Z,16.88
2018-07-21T09:51:28.246Z,16.88
2018-07-21T09:52:28.163Z,16.88
2018-07-21T09:53:28.147Z,16.88
2018-07-21T09:54:28.019Z,22.50
2018-07-21T09:55:27.944Z,22.50
2018-07-21T09:56:27.867Z,22.50
2018-07-21T09:57:27.842Z,22.50
2018-07-21T09:58:27.724Z,22.50
2018-07-21T09:59:27.749Z,22.50
2018-07-21T10:00:27.588Z,22.50
2018-07-21T10:01:27.556Z,22.50
2018-07-21T10:02:27.445Z,22.50
2018-07-21T10:03:27.372Z,28.13
2018-07-21T10:04:27.294Z,28.13
2018-07-21T10:05:27.229Z,28.13
2018-07-21T10:06:27.156Z,28.13
2018-07-21T10:07:27.087Z,28.13
2018-07-21T10:08:27.009Z,28.13
2018-07-21T10:09:27.000Z,28.13
2018-07-21T10:10:26.865Z,28.13
2018-07-21T10:11:26.813Z,22.50
2018-07-21T10:12:26.719Z,22.50
2018-07-21T10:13:26.722Z,22.50
2018-07-21T10:14:26.576Z,22.50
2018-07-21T10:15:26.538Z,22.50
2018-07-21T10:16:26.432Z,22.50
2018-07-21T10:17:26.443Z,22.50
2018-07-21T10:18:26.289Z,22.50
2018-07-21T10:19:26.255Z,22.50
2018-07-21T10:20:26.146Z,22.50
2018-07-21T10:21:26.163Z,22.50
2018-07-21T10:22:26.005Z,22.50
2018-07-21T10:23:25.971Z,22.50
2018-07-21T10:24:25.860Z,22.50
2018-07-21T10:25:25.887Z,22.50
2018-07-21T10:26:25.716Z,22.50
2018-07-21T10:27:25.687Z,22.50
2018-07-21T10:28:25.600Z,22.50
2018-07-21T10:29:25.512Z,22.50
2018-07-21T10:30:25.507Z,28.13
2018-07-21T10:31:25.356Z,28.13
2018-07-21T10:32:25.332Z,28.13
2018-07-21T10:33:25.242Z,28.13
2018-07-21T10:34:25.235Z,28.13
2018-07-21T10:35:25.080Z,28.13
2018-07-21T10:36:25.037Z,28.13
2018-07-21T10:37:24.928Z,28.13
2018-07-21T10:38:24.947Z,22.50
2018-07-21T10:39:24.797Z,22.50
2018-07-21T10:40:24.788Z,28.13
2018-07-21T10:41:24.641Z,28.13
2018-07-21T10:42:24.663Z,28.13
2018-07-21T10:43:24.497Z,28.13
2018-07-21T10:44:24.498Z,22.50
2018-07-21T10:45:24.358Z,22.50
2018-07-21T10:46:24.386Z,28.13
2018-07-21T10:47:24.216Z,28.13
2018-07-21T10:48:24.192Z,28.13
2018-07-21T10:49:24.069Z,33.75
2018-07-21T10:50:24.110Z,33.75
2018-07-21T10:51:23.928Z,33.75
2018-07-21T10:52:23.914Z,39.38
2018-07-21T10:53:23.782Z,39.38
2018-07-21T10:54:23.825Z,39.38
2018-07-21T10:55:23.638Z,39.38
2018-07-21T10:56:23.650Z,39.38
2018-07-21T10:57:23.495Z,39.38
2018-07-21T10:58:23.447Z,39.38
2018-07-21T10:59:23.351Z,39.38
2018-07-21T11:00:23.367Z,39.38
2018-07-21T11:01:23.207Z,39.38
2018-07-21T11:02:23.145Z,39.38
2018-07-21T11:03:23.067Z,39.38
2018-07-21T11:04:23.004Z,39.38
2018-07-21T11:05:22.932Z,39.38
2018-07-21T11:06:22.884Z,39.38
2018-07-21T11:07:22.787Z,39.38
2018-07-21T11:08:22.793Z,39.38
2018-07-21T11:09:22.640Z,39.38
2018-07-21T11:10:22.603Z,39.38
2018-07-21T11:11:22.499Z,33.75
2018-07-21T11:12:22.510Z,33.75
2018-07-21T11:13:22.355Z,33.75
2018-07-21T11:14:22.323Z,33.75
2018-07-21T11:15:22.223Z,33.75
2018-07-21T11:16:22.231Z,33.75
2018-07-21T11:17:22.068Z,33.75
2018-07-21T11:18:22.045Z,39.38
2018-07-21T11:19:21.932Z,39.38
2018-07-21T11:20:21.949Z,39.38
2018-07-21T11:21:21.783Z,39.38
2018-07-21T11:22:21.762Z,39.38
2018-07-21T11:23:21.641Z,39.38
2018-07-21T11:24:21.673Z,45.00
2018-07-21T11:25:21.498Z,45.00
2018-07-21T11:26:21.480Z,45.00
2018-07-21T11:27:21.356Z,45.00
2018-07-21T11:28:21.391Z,45.00
2018-07-21T11:29:21.229Z,39.38
2018-07-21T11:30:21.201Z,39.38
2018-07-21T11:31:21.071Z,39.38
2018-07-21T11:32:21.111Z,45.00
2018-07-21T11:33:20.930Z,45.00
2018-07-21T11:34:20.923Z,45.00
2018-07-21T11:35:20.875Z,45.00
2018-07-21T11:36:20.869Z,50.63
2018-07-21T11:37:20.646Z,50.63
2018-07-21T11:38:20.643Z,50.63
2018-07-21T11:39:20.500Z,50.63
2018-07-21T11:40:20.449Z,50.63
2018-07-21T11:41:20.359Z,50.63
2018-07-21T11:42:20.359Z,50.63
2018-07-21T11:43:20.218Z,50.63
2018-07-21T11:44:20.168Z,50.63
2018-07-21T11:45:20.075Z,45.00
2018-07-21T11:46:20.079Z,45.00
2018-07-21T11:47:19.930Z,45.00
2018-07-21T11:48:19.883Z,45.00
2018-07-21T11:49:19.787Z,39.38
2018-07-21T11:50:19.799Z,39.38
2018-07-21T11:51:19.647Z,39.38
2018-07-21T11:52:19.607Z,39.38
2018-07-21T11:53:19.508Z,33.75
2018-07-21T11:54:19.517Z,33.75
2018-07-21T11:55:19.364Z,33.75
2018-07-21T11:56:19.326Z,33.75
2018-07-21T11:57:19.221Z,28.13
2018-07-21T11:58:19.241Z,28.13
2018-07-21T11:59:19.080Z,28.13
2018-07-21T12:00:20.072Z,28.13
2018-07-21T12:01:18.939Z,28.13
2018-07-21T12:02:18.960Z,28.13
2018-07-21T12:03:18.801Z,28.13
2018-07-21T12:04:18.767Z,28.13
2018-07-21T12:05:18.722Z,28.13
2018-07-21T12:06:18.677Z,33.75
2018-07-21T12:07:18.516Z,33.75
2018-07-21T12:08:18.487Z,33.75
2018-07-21T12:09:18.369Z,33.75
2018-07-21T12:10:18.301Z,33.75
2018-07-21T12:11:18.227Z,33.75
2018-07-21T12:12:18.206Z,33.75
2018-07-21T12:13:18.146Z,33.75
2018-07-21T12:14:18.115Z,33.75
2018-07-21T12:15:17.961Z,33.75
2018-07-21T12:16:17.926Z,39.38
2018-07-21T12:17:17.801Z,39.38
2018-07-21T12:18:17.851Z,39.38
2018-07-21T12:19:17.659Z,39.38
2018-07-21T12:20:17.672Z,39.38
2018-07-21T12:21:17.520Z,39.38
2018-07-21T12:22:17.559Z,39.38
2018-07-21T12:23:17.380Z,39.38
2018-07-21T12:24:17.366Z,39.38
2018-07-21T12:25:17.230Z,39.38
2018-07-21T12:26:17.278Z,39.38
2018-07-21T12:27:17.090Z,39.38
2018-07-21T12:28:17.118Z,39.38
2018-07-21T12:29:16.948Z,39.38
2018-07-21T12:30:16.997Z,39.38
2018-07-21T12:31:16.824Z,45.00
2018-07-21T12:32:16.809Z,45.00
2018-07-21T12:33:16.666Z,45.00
2018-07-21T12:34:16.639Z,45.00
2018-07-21T12:35:16.522Z,45.00
2018-07-21T12:36:16.524Z,45.00
2018-07-21T12:37:16.388Z,45.00
2018-07-21T12:38:16.333Z,45.00
2018-07-21T12:39:16.239Z,45.00
2018-07-21T12:40:16.245Z,45.00
2018-07-21T12:41:16.098Z,39.38
2018-07-21T12:42:16.036Z,39.38
2018-07-21T12:43:15.954Z,39.38
2018-07-21T12:44:15.893Z,39.38
2018-07-21T12:45:15.814Z,39.38
2018-07-21T12:46:15.776Z,39.38
2018-07-21T12:47:15.736Z,39.38
2018-07-21T12:48:15.683Z,39.38
2018-07-21T12:49:15.540Z,39.38
2018-07-21T12:50:21.437Z,39.38
2018-07-21T12:51:15.396Z,39.38
2018-07-21T12:52:16.433Z,39.38
2018-07-21T12:53:15.245Z,39.38
2018-07-21T12:54:16.235Z,39.38
2018-07-21T12:55:15.105Z,39.38
2018-07-21T12:56:15.131Z,39.38
2018-07-21T12:57:14.964Z,39.38
2018-07-21T12:58:14.936Z,39.38
2018-07-21T12:59:14.824Z,39.38
2018-07-21T13:00:14.767Z,39.38
2018-07-21T13:01:14.685Z,33.75
2018-07-21T13:02:14.655Z,33.75
2018-07-21T13:03:14.570Z,28.13
2018-07-21T13:04:14.571Z,28.13
2018-07-21T13:05:14.399Z,28.13